sensor_id;sensor_type;location;lat;lon;timestamp;temperature;humidity
7341;DHT22;6870;50.944;6.932;2023-07-29T00:02:16;24.20;48.60
7341;DHT22;6870;50.944;6.932;2023-07-29T00:04:44;24.50;48.90
7341;DHT22;6870;50.944;6.932;2023-07-29T00:07:12;24.40;48.80
7341;DHT22;6870;50.944;6.932;2023-07-29T00:09:40;24.20;48.60
7341;DHT22;6870;50.944;6.932;2023-07-29T00:12:08;23.90;48.30
7341;DHT22;6870;50.944;6.932;2023-07-29T00:14:36;24.20;48.60
7341;DHT22;6870;50.944;6.932;2023-07-29T00:17:05;24.30;48.70
7341;DHT22;6870;50.944;6.932;2023-07-29T00:19:33;24.10;48.50
7341;DHT22;6870;50.944;6.932;2023-07-29T00:22:01;24.30;48.60
7341;DHT22;6870;50.944;6.932;2023-07-29T00:24:30;24.00;48.30
7341;DHT22;6870;50.944;6.932;2023-07-29T00:26:58;24.00;48.40
7341;DHT22;6870;50.944;6.932;2023-07-29T00:29:26;23.80;48.20
7341;DHT22;6870;50.944;6.932;2023-07-29T00:31:54;24.10;48.50
7341;DHT22;6870;50.944;6.932;2023-07-29T00:34:23;24.00;48.20
7341;DHT22;6870;50.944;6.932;2023-07-29T00:36:51;23.90;48.30
7341;DHT22;6870;50.944;6.932;2023-07-29T00:39:19;24.00;48.40
7341;DHT22;6870;50.944;6.932;2023-07-29T00:41:47;24.10;48.50
7341;DHT22;6870;50.944;6.932;2023-07-29T00:44:15;24.30;48.70
7341;DHT22;6870;50.944;6.932;2023-07-29T00:46:46;23.90;48.30
7341;DHT22;6870;50.944;6.932;2023-07-29T00:49:15;24.10;48.50
7341;DHT22;6870;50.944;6.932;2023-07-29T00:51:44;24.10;48.30
7341;DHT22;6870;50.944;6.932;2023-07-29T00:54:13;24.10;48.40
7341;DHT22;6870;50.944;6.932;2023-07-29T00:56:41;24.20;48.40
7341;DHT22;6870;50.944;6.932;2023-07-29T00:59:09;24.30;48.70
7341;DHT22;6870;50.944;6.932;2023-07-29T01:01:37;24.10;48.50
7341;DHT22;6870;50.944;6.932;2023-07-29T01:04:06;24.00;48.40
7341;DHT22;6870;50.944;6.932;2023-07-29T01:06:41;24.20;48.50
7341;DHT22;6870;50.944;6.932;2023-07-29T01:09:28;24.10;48.00
7341;DHT22;6870;50.944;6.932;2023-07-29T01:12:06;24.30;48.20
7341;DHT22;6870;50.944;6.932;2023-07-29T01:14:44;24.10;48.00
7341;DHT22;6870;50.944;6.932;2023-07-29T01:17:19;24.40;48.20
7341;DHT22;6870;50.944;6.932;2023-07-29T01:19:59;24.10;47.90
7341;DHT22;6870;50.944;6.932;2023-07-29T01:22:30;24.10;47.80
7341;DHT22;6870;50.944;6.932;2023-07-29T01:25:01;24.00;47.50
7341;DHT22;6870;50.944;6.932;2023-07-29T01:27:29;23.80;47.30
7341;DHT22;6870;50.944;6.932;2023-07-29T01:29:58;24.10;47.50
7341;DHT22;6870;50.944;6.932;2023-07-29T01:32:32;24.10;47.40
7341;DHT22;6870;50.944;6.932;2023-07-29T01:35:16;23.90;47.30
7341;DHT22;6870;50.944;6.932;2023-07-29T01:37:51;24.10;47.30
7341;DHT22;6870;50.944;6.932;2023-07-29T01:40:22;23.90;47.20
7341;DHT22;6870;50.944;6.932;2023-07-29T01:42:54;24.30;47.40
7341;DHT22;6870;50.944;6.932;2023-07-29T01:45:23;24.40;47.50
7341;DHT22;6870;50.944;6.932;2023-07-29T01:47:52;23.90;47.10
7341;DHT22;6870;50.944;6.932;2023-07-29T01:50:20;23.80;47.20
7341;DHT22;6870;50.944;6.932;2023-07-29T01:52:48;23.90;47.20
7341;DHT22;6870;50.944;6.932;2023-07-29T01:55:16;23.80;47.10
7341;DHT22;6870;50.944;6.932;2023-07-29T01:57:46;23.90;47.10
7341;DHT22;6870;50.944;6.932;2023-07-29T02:00:14;24.10;47.50
7341;DHT22;6870;50.944;6.932;2023-07-29T02:02:43;24.10;47.40
7341;DHT22;6870;50.944;6.932;2023-07-29T02:05:11;24.10;47.30
7341;DHT22;6870;50.944;6.932;2023-07-29T02:07:39;24.00;47.40
7341;DHT22;6870;50.944;6.932;2023-07-29T02:10:07;24.10;47.40
7341;DHT22;6870;50.944;6.932;2023-07-29T02:12:36;24.00;47.20
7341;DHT22;6870;50.944;6.932;2023-07-29T02:15:06;23.90;47.10
7341;DHT22;6870;50.944;6.932;2023-07-29T02:17:36;24.10;47.40
7341;DHT22;6870;50.944;6.932;2023-07-29T02:20:05;24.00;47.10
7341;DHT22;6870;50.944;6.932;2023-07-29T02:22:34;24.00;47.20
7341;DHT22;6870;50.944;6.932;2023-07-29T02:25:02;24.20;47.30
7341;DHT22;6870;50.944;6.932;2023-07-29T02:27:31;23.90;46.80
7341;DHT22;6870;50.944;6.932;2023-07-29T02:30:00;23.90;46.80
7341;DHT22;6870;50.944;6.932;2023-07-29T02:32:29;24.10;47.00
7341;DHT22;6870;50.944;6.932;2023-07-29T02:34:57;24.10;47.00
7341;DHT22;6870;50.944;6.932;2023-07-29T02:37:26;24.00;46.70
7341;DHT22;6870;50.944;6.932;2023-07-29T02:39:54;24.00;46.90
7341;DHT22;6870;50.944;6.932;2023-07-29T02:42:22;24.10;46.90
7341;DHT22;6870;50.944;6.932;2023-07-29T02:44:50;24.10;46.90
7341;DHT22;6870;50.944;6.932;2023-07-29T02:47:18;24.10;47.00
7341;DHT22;6870;50.944;6.932;2023-07-29T02:49:47;24.10;47.00
7341;DHT22;6870;50.944;6.932;2023-07-29T02:52:15;24.00;46.90
7341;DHT22;6870;50.944;6.932;2023-07-29T02:54:43;23.80;46.70
7341;DHT22;6870;50.944;6.932;2023-07-29T02:57:13;23.90;46.70
7341;DHT22;6870;50.944;6.932;2023-07-29T02:59:41;24.20;47.20
7341;DHT22;6870;50.944;6.932;2023-07-29T03:02:09;24.10;47.60
7341;DHT22;6870;50.944;6.932;2023-07-29T03:04:37;23.90;46.60
7341;DHT22;6870;50.944;6.932;2023-07-29T03:07:06;24.00;46.70
7341;DHT22;6870;50.944;6.932;2023-07-29T03:09:34;23.90;46.70
7341;DHT22;6870;50.944;6.932;2023-07-29T03:12:02;24.00;46.90
7341;DHT22;6870;50.944;6.932;2023-07-29T03:14:31;24.00;46.60
7341;DHT22;6870;50.944;6.932;2023-07-29T03:17:02;24.10;46.80
7341;DHT22;6870;50.944;6.932;2023-07-29T03:19:31;23.90;46.60
7341;DHT22;6870;50.944;6.932;2023-07-29T03:21:59;23.80;46.30
7341;DHT22;6870;50.944;6.932;2023-07-29T03:24:28;23.90;46.40
7341;DHT22;6870;50.944;6.932;2023-07-29T03:26:56;23.80;46.40
7341;DHT22;6870;50.944;6.932;2023-07-29T03:29:24;23.70;46.50
7341;DHT22;6870;50.944;6.932;2023-07-29T03:31:52;24.00;46.50
7341;DHT22;6870;50.944;6.932;2023-07-29T03:34:21;23.80;46.40
7341;DHT22;6870;50.944;6.932;2023-07-29T03:36:49;24.10;46.80
7341;DHT22;6870;50.944;6.932;2023-07-29T03:39:18;23.70;46.40
7341;DHT22;6870;50.944;6.932;2023-07-29T03:41:48;24.00;46.60
7341;DHT22;6870;50.944;6.932;2023-07-29T03:44:16;23.80;46.70
7341;DHT22;6870;50.944;6.932;2023-07-29T03:46:44;23.60;46.30
7341;DHT22;6870;50.944;6.932;2023-07-29T03:49:13;23.90;46.60
7341;DHT22;6870;50.944;6.932;2023-07-29T03:51:41;23.90;46.80
7341;DHT22;6870;50.944;6.932;2023-07-29T03:54:09;23.90;46.50
7341;DHT22;6870;50.944;6.932;2023-07-29T03:56:37;24.10;46.70
7341;DHT22;6870;50.944;6.932;2023-07-29T03:59:07;23.90;46.50
7341;DHT22;6870;50.944;6.932;2023-07-29T04:01:35;24.00;46.70
7341;DHT22;6870;50.944;6.932;2023-07-29T04:04:03;24.00;46.70
7341;DHT22;6870;50.944;6.932;2023-07-29T04:06:31;23.90;46.70
7341;DHT22;6870;50.944;6.932;2023-07-29T04:09:00;24.00;46.60
7341;DHT22;6870;50.944;6.932;2023-07-29T04:11:28;23.60;46.30
7341;DHT22;6870;50.944;6.932;2023-07-29T04:13:56;24.10;46.80
7341;DHT22;6870;50.944;6.932;2023-07-29T04:16:26;23.90;46.40
7341;DHT22;6870;50.944;6.932;2023-07-29T04:18:55;23.90;46.50
7341;DHT22;6870;50.944;6.932;2023-07-29T04:21:23;23.70;46.10
7341;DHT22;6870;50.944;6.932;2023-07-29T04:23:51;23.90;46.30
7341;DHT22;6870;50.944;6.932;2023-07-29T04:26:19;24.10;46.50
7341;DHT22;6870;50.944;6.932;2023-07-29T04:28:47;23.70;46.10
7341;DHT22;6870;50.944;6.932;2023-07-29T04:31:15;23.60;46.10
7341;DHT22;6870;50.944;6.932;2023-07-29T04:33:44;23.80;46.30
7341;DHT22;6870;50.944;6.932;2023-07-29T04:36:12;23.60;46.00
7341;DHT22;6870;50.944;6.932;2023-07-29T04:38:40;23.90;46.30
7341;DHT22;6870;50.944;6.932;2023-07-29T04:41:08;23.90;46.40
7341;DHT22;6870;50.944;6.932;2023-07-29T04:43:37;24.10;46.50
7341;DHT22;6870;50.944;6.932;2023-07-29T04:46:06;23.70;46.00
7341;DHT22;6870;50.944;6.932;2023-07-29T04:48:35;23.90;46.30
7341;DHT22;6870;50.944;6.932;2023-07-29T04:51:04;23.60;46.00
7341;DHT22;6870;50.944;6.932;2023-07-29T04:53:32;24.10;46.30
7341;DHT22;6870;50.944;6.932;2023-07-29T04:56:02;24.00;46.20
7341;DHT22;6870;50.944;6.932;2023-07-29T04:58:30;24.00;46.40
7341;DHT22;6870;50.944;6.932;2023-07-29T05:01:01;24.00;46.10
7341;DHT22;6870;50.944;6.932;2023-07-29T05:03:30;24.10;46.20
7341;DHT22;6870;50.944;6.932;2023-07-29T05:05:58;23.80;46.10
7341;DHT22;6870;50.944;6.932;2023-07-29T05:08:28;24.10;46.50
7341;DHT22;6870;50.944;6.932;2023-07-29T05:10:56;24.10;46.20
7341;DHT22;6870;50.944;6.932;2023-07-29T05:13:25;24.00;46.20
7341;DHT22;6870;50.944;6.932;2023-07-29T05:15:54;24.00;46.00
7341;DHT22;6870;50.944;6.932;2023-07-29T05:18:23;24.10;46.00
7341;DHT22;6870;50.944;6.932;2023-07-29T05:20:51;23.60;45.50
7341;DHT22;6870;50.944;6.932;2023-07-29T05:23:19;24.00;46.10
7341;DHT22;6870;50.944;6.932;2023-07-29T05:25:48;24.10;46.20
7341;DHT22;6870;50.944;6.932;2023-07-29T05:28:16;24.20;46.40
7341;DHT22;6870;50.944;6.932;2023-07-29T05:30:44;24.10;46.60
7341;DHT22;6870;50.944;6.932;2023-07-29T05:33:12;23.80;46.40
7341;DHT22;6870;50.944;6.932;2023-07-29T05:35:40;24.20;46.80
7341;DHT22;6870;50.944;6.932;2023-07-29T05:38:08;24.00;46.20
7341;DHT22;6870;50.944;6.932;2023-07-29T05:40:36;24.00;46.20
7341;DHT22;6870;50.944;6.932;2023-07-29T05:43:05;24.10;46.30
7341;DHT22;6870;50.944;6.932;2023-07-29T05:45:33;24.00;46.20
7341;DHT22;6870;50.944;6.932;2023-07-29T05:48:01;24.10;46.40
7341;DHT22;6870;50.944;6.932;2023-07-29T05:50:30;23.90;46.50
7341;DHT22;6870;50.944;6.932;2023-07-29T05:52:58;24.00;46.20
7341;DHT22;6870;50.944;6.932;2023-07-29T05:55:26;24.00;47.20
7341;DHT22;6870;50.944;6.932;2023-07-29T05:57:54;24.00;48.30
7341;DHT22;6870;50.944;6.932;2023-07-29T06:00:23;24.00;48.50
7341;DHT22;6870;50.944;6.932;2023-07-29T06:02:51;24.10;48.50
7341;DHT22;6870;50.944;6.932;2023-07-29T06:05:19;24.20;48.60
7341;DHT22;6870;50.944;6.932;2023-07-29T06:07:47;24.00;48.50
7341;DHT22;6870;50.944;6.932;2023-07-29T06:10:16;24.10;48.50
7341;DHT22;6870;50.944;6.932;2023-07-29T06:12:45;23.90;48.60
7341;DHT22;6870;50.944;6.932;2023-07-29T06:15:13;24.10;49.20
7341;DHT22;6870;50.944;6.932;2023-07-29T06:17:43;24.10;48.70
7341;DHT22;6870;50.944;6.932;2023-07-29T06:20:11;24.30;48.70
7341;DHT22;6870;50.944;6.932;2023-07-29T06:22:39;24.20;49.00
7341;DHT22;6870;50.944;6.932;2023-07-29T06:25:07;24.00;48.70
7341;DHT22;6870;50.944;6.932;2023-07-29T06:27:36;24.00;49.10
7341;DHT22;6870;50.944;6.932;2023-07-29T06:30:05;24.40;48.80
7341;DHT22;6870;50.944;6.932;2023-07-29T06:32:34;24.10;48.50
7341;DHT22;6870;50.944;6.932;2023-07-29T06:35:04;24.10;48.60
7341;DHT22;6870;50.944;6.932;2023-07-29T06:37:32;24.10;48.90
7341;DHT22;6870;50.944;6.932;2023-07-29T06:40:00;24.30;48.80
7341;DHT22;6870;50.944;6.932;2023-07-29T06:42:29;24.20;48.60
7341;DHT22;6870;50.944;6.932;2023-07-29T06:44:57;24.10;48.70
7341;DHT22;6870;50.944;6.932;2023-07-29T06:47:25;24.40;48.90
7341;DHT22;6870;50.944;6.932;2023-07-29T06:49:53;24.10;48.70
7341;DHT22;6870;50.944;6.932;2023-07-29T06:52:23;24.10;48.90
7341;DHT22;6870;50.944;6.932;2023-07-29T06:54:51;24.10;48.70
7341;DHT22;6870;50.944;6.932;2023-07-29T06:57:19;24.10;48.80
7341;DHT22;6870;50.944;6.932;2023-07-29T06:59:47;24.30;48.70
7341;DHT22;6870;50.944;6.932;2023-07-29T07:02:15;24.20;48.70
7341;DHT22;6870;50.944;6.932;2023-07-29T07:04:43;24.10;48.50
7341;DHT22;6870;50.944;6.932;2023-07-29T07:07:11;24.30;48.60
7341;DHT22;6870;50.944;6.932;2023-07-29T07:09:40;24.40;48.70
7341;DHT22;6870;50.944;6.932;2023-07-29T07:12:08;24.20;48.10
7341;DHT22;6870;50.944;6.932;2023-07-29T07:14:37;24.40;48.00
7341;DHT22;6870;50.944;6.932;2023-07-29T07:17:05;24.40;48.00
7341;DHT22;6870;50.944;6.932;2023-07-29T07:19:35;24.50;47.80
7341;DHT22;6870;50.944;6.932;2023-07-29T07:22:03;24.40;47.50
7341;DHT22;6870;50.944;6.932;2023-07-29T07:24:32;24.60;47.70
7341;DHT22;6870;50.944;6.932;2023-07-29T07:27:01;24.30;47.20
7341;DHT22;6870;50.944;6.932;2023-07-29T07:29:29;24.50;47.90
7341;DHT22;6870;50.944;6.932;2023-07-29T07:31:58;24.80;47.50
7341;DHT22;6870;50.944;6.932;2023-07-29T07:34:26;24.70;47.50
7341;DHT22;6870;50.944;6.932;2023-07-29T07:36:54;24.70;46.90
7341;DHT22;6870;50.944;6.932;2023-07-29T07:39:22;24.40;46.30
7341;DHT22;6870;50.944;6.932;2023-07-29T07:41:50;24.10;45.70
7341;DHT22;6870;50.944;6.932;2023-07-29T07:44:20;24.50;46.20
7341;DHT22;6870;50.944;6.932;2023-07-29T07:46:48;24.50;46.50
7341;DHT22;6870;50.944;6.932;2023-07-29T07:49:16;24.30;45.90
7341;DHT22;6870;50.944;6.932;2023-07-29T07:51:44;24.30;46.10
7341;DHT22;6870;50.944;6.932;2023-07-29T07:54:12;24.20;45.90
7341;DHT22;6870;50.944;6.932;2023-07-29T07:56:40;24.60;46.10
7341;DHT22;6870;50.944;6.932;2023-07-29T07:59:08;24.40;45.40
7341;DHT22;6870;50.944;6.932;2023-07-29T08:01:39;24.50;45.60
7341;DHT22;6870;50.944;6.932;2023-07-29T08:04:07;24.30;45.20
7341;DHT22;6870;50.944;6.932;2023-07-29T08:06:35;24.50;45.20
7341;DHT22;6870;50.944;6.932;2023-07-29T08:09:03;24.50;45.20
7341;DHT22;6870;50.944;6.932;2023-07-29T08:11:31;24.30;44.70
7341;DHT22;6870;50.944;6.932;2023-07-29T08:13:59;24.30;44.70
7341;DHT22;6870;50.944;6.932;2023-07-29T08:16:27;24.30;44.70
7341;DHT22;6870;50.944;6.932;2023-07-29T08:18:57;24.80;45.10
7341;DHT22;6870;50.944;6.932;2023-07-29T08:21:26;24.80;45.10
7341;DHT22;6870;50.944;6.932;2023-07-29T08:23:54;24.30;44.30
7341;DHT22;6870;50.944;6.932;2023-07-29T08:26:22;24.60;44.20
7341;DHT22;6870;50.944;6.932;2023-07-29T08:28:50;24.70;43.90
7341;DHT22;6870;50.944;6.932;2023-07-29T08:31:21;24.60;43.80
7341;DHT22;6870;50.944;6.932;2023-07-29T08:33:49;24.30;43.60
7341;DHT22;6870;50.944;6.932;2023-07-29T08:36:18;24.20;43.50
7341;DHT22;6870;50.944;6.932;2023-07-29T08:38:46;24.30;42.90
7341;DHT22;6870;50.944;6.932;2023-07-29T08:41:18;24.30;42.50
7341;DHT22;6870;50.944;6.932;2023-07-29T08:43:52;24.10;42.10
7341;DHT22;6870;50.944;6.932;2023-07-29T08:46:23;24.20;42.00
7341;DHT22;6870;50.944;6.932;2023-07-29T08:48:53;24.20;41.70
7341;DHT22;6870;50.944;6.932;2023-07-29T08:51:23;24.20;41.80
7341;DHT22;6870;50.944;6.932;2023-07-29T08:53:51;24.30;41.20
7341;DHT22;6870;50.944;6.932;2023-07-29T08:56:20;24.10;41.90
7341;DHT22;6870;50.944;6.932;2023-07-29T08:58:48;24.30;41.70
7341;DHT22;6870;50.944;6.932;2023-07-29T09:01:17;24.60;41.70
7341;DHT22;6870;50.944;6.932;2023-07-29T09:03:45;24.40;41.20
7341;DHT22;6870;50.944;6.932;2023-07-29T09:06:14;24.50;40.70
7341;DHT22;6870;50.944;6.932;2023-07-29T09:08:44;24.60;40.90
7341;DHT22;6870;50.944;6.932;2023-07-29T09:11:13;24.30;40.30
7341;DHT22;6870;50.944;6.932;2023-07-29T09:13:43;24.40;39.90
7341;DHT22;6870;50.944;6.932;2023-07-29T09:16:11;24.70;40.10
7341;DHT22;6870;50.944;6.932;2023-07-29T09:18:40;24.50;40.20
7341;DHT22;6870;50.944;6.932;2023-07-29T09:21:08;24.40;40.20
7341;DHT22;6870;50.944;6.932;2023-07-29T09:23:40;24.60;39.20
7341;DHT22;6870;50.944;6.932;2023-07-29T09:26:10;24.20;40.00
7341;DHT22;6870;50.944;6.932;2023-07-29T09:28:39;24.20;39.50
7341;DHT22;6870;50.944;6.932;2023-07-29T09:31:18;24.50;39.50
7341;DHT22;6870;50.944;6.932;2023-07-29T09:33:48;24.30;39.30
7341;DHT22;6870;50.944;6.932;2023-07-29T09:36:16;24.40;38.90
7341;DHT22;6870;50.944;6.932;2023-07-29T09:38:44;24.40;39.30
7341;DHT22;6870;50.944;6.932;2023-07-29T09:41:15;24.30;39.70
7341;DHT22;6870;50.944;6.932;2023-07-29T09:43:44;24.50;40.00
7341;DHT22;6870;50.944;6.932;2023-07-29T09:46:12;24.50;39.70
7341;DHT22;6870;50.944;6.932;2023-07-29T09:48:40;24.60;40.40
7341;DHT22;6870;50.944;6.932;2023-07-29T09:51:10;24.40;39.20
7341;DHT22;6870;50.944;6.932;2023-07-29T09:53:40;24.30;39.60
7341;DHT22;6870;50.944;6.932;2023-07-29T09:56:14;24.50;39.20
7341;DHT22;6870;50.944;6.932;2023-07-29T09:58:44;24.20;39.30
7341;DHT22;6870;50.944;6.932;2023-07-29T10:01:13;24.30;39.60
7341;DHT22;6870;50.944;6.932;2023-07-29T10:03:42;24.50;40.50
7341;DHT22;6870;50.944;6.932;2023-07-29T10:06:14;24.20;40.30
7341;DHT22;6870;50.944;6.932;2023-07-29T10:08:43;24.70;40.00
7341;DHT22;6870;50.944;6.932;2023-07-29T10:11:11;24.50;40.10
7341;DHT22;6870;50.944;6.932;2023-07-29T10:13:41;24.70;38.90
7341;DHT22;6870;50.944;6.932;2023-07-29T10:16:19;24.60;38.70
7341;DHT22;6870;50.944;6.932;2023-07-29T10:18:48;24.40;38.80
7341;DHT22;6870;50.944;6.932;2023-07-29T10:21:16;24.70;38.00
7341;DHT22;6870;50.944;6.932;2023-07-29T10:23:47;24.70;38.00
7341;DHT22;6870;50.944;6.932;2023-07-29T10:26:20;24.40;38.30
7341;DHT22;6870;50.944;6.932;2023-07-29T10:28:50;24.90;38.00
7341;DHT22;6870;50.944;6.932;2023-07-29T10:31:20;24.80;36.10
7341;DHT22;6870;50.944;6.932;2023-07-29T10:33:49;24.80;36.70
7341;DHT22;6870;50.944;6.932;2023-07-29T10:36:17;24.40;36.40
7341;DHT22;6870;50.944;6.932;2023-07-29T10:38:49;24.30;36.10
7341;DHT22;6870;50.944;6.932;2023-07-29T10:41:19;24.70;37.00
7341;DHT22;6870;50.944;6.932;2023-07-29T10:43:47;24.70;36.70
7341;DHT22;6870;50.944;6.932;2023-07-29T10:46:16;24.50;36.90
7341;DHT22;6870;50.944;6.932;2023-07-29T10:48:53;25.00;37.70
7341;DHT22;6870;50.944;6.932;2023-07-29T10:51:26;24.80;37.60
7341;DHT22;6870;50.944;6.932;2023-07-29T10:53:56;24.40;38.30
7341;DHT22;6870;50.944;6.932;2023-07-29T10:56:31;24.70;37.80
7341;DHT22;6870;50.944;6.932;2023-07-29T10:59:31;24.50;38.60
7341;DHT22;6870;50.944;6.932;2023-07-29T11:02:03;24.50;38.70
7341;DHT22;6870;50.944;6.932;2023-07-29T11:04:46;24.40;38.50
7341;DHT22;6870;50.944;6.932;2023-07-29T11:07:22;24.90;39.20
7341;DHT22;6870;50.944;6.932;2023-07-29T11:09:55;24.60;38.30
7341;DHT22;6870;50.944;6.932;2023-07-29T11:12:47;24.80;39.30
7341;DHT22;6870;50.944;6.932;2023-07-29T11:15:20;24.40;38.90
7341;DHT22;6870;50.944;6.932;2023-07-29T11:17:51;24.70;39.20
7341;DHT22;6870;50.944;6.932;2023-07-29T11:20:21;24.30;38.30
7341;DHT22;6870;50.944;6.932;2023-07-29T11:22:50;24.40;38.50
7341;DHT22;6870;50.944;6.932;2023-07-29T11:25:18;24.80;39.00
7341;DHT22;6870;50.944;6.932;2023-07-29T11:27:49;24.90;39.60
7341;DHT22;6870;50.944;6.932;2023-07-29T11:30:19;24.50;39.90
7341;DHT22;6870;50.944;6.932;2023-07-29T11:32:47;24.60;39.30
7341;DHT22;6870;50.944;6.932;2023-07-29T11:35:16;24.30;39.30
7341;DHT22;6870;50.944;6.932;2023-07-29T11:37:46;24.30;40.00
7341;DHT22;6870;50.944;6.932;2023-07-29T11:40:15;24.70;39.40
7341;DHT22;6870;50.944;6.932;2023-07-29T11:42:45;24.90;39.20
7341;DHT22;6870;50.944;6.932;2023-07-29T11:45:14;24.80;38.90
7341;DHT22;6870;50.944;6.932;2023-07-29T11:47:44;24.80;38.70
7341;DHT22;6870;50.944;6.932;2023-07-29T11:50:14;24.90;38.60
7341;DHT22;6870;50.944;6.932;2023-07-29T11:52:43;24.60;38.90
7341;DHT22;6870;50.944;6.932;2023-07-29T11:55:13;24.90;37.90
7341;DHT22;6870;50.944;6.932;2023-07-29T11:57:43;25.10;37.40
7341;DHT22;6870;50.944;6.932;2023-07-29T12:00:11;24.60;36.30
7341;DHT22;6870;50.944;6.932;2023-07-29T12:02:43;25.00;36.60
7341;DHT22;6870;50.944;6.932;2023-07-29T12:05:13;25.10;37.00
7341;DHT22;6870;50.944;6.932;2023-07-29T12:07:43;24.70;36.70
7341;DHT22;6870;50.944;6.932;2023-07-29T12:10:12;25.10;37.20
7341;DHT22;6870;50.944;6.932;2023-07-29T12:12:47;25.20;37.00
7341;DHT22;6870;50.944;6.932;2023-07-29T12:15:23;25.20;36.70
7341;DHT22;6870;50.944;6.932;2023-07-29T12:17:57;25.30;36.40
7341;DHT22;6870;50.944;6.932;2023-07-29T12:20:26;25.30;36.50
7341;DHT22;6870;50.944;6.932;2023-07-29T12:22:58;25.30;36.40
7341;DHT22;6870;50.944;6.932;2023-07-29T12:25:28;25.50;35.80
7341;DHT22;6870;50.944;6.932;2023-07-29T12:27:56;25.20;35.60
7341;DHT22;6870;50.944;6.932;2023-07-29T12:30:30;25.30;35.60
7341;DHT22;6870;50.944;6.932;2023-07-29T12:32:59;25.40;35.10
7341;DHT22;6870;50.944;6.932;2023-07-29T12:35:37;25.70;36.00
7341;DHT22;6870;50.944;6.932;2023-07-29T12:38:06;25.30;35.20
7341;DHT22;6870;50.944;6.932;2023-07-29T12:40:38;25.40;34.50
7341;DHT22;6870;50.944;6.932;2023-07-29T12:43:08;25.90;33.90
7341;DHT22;6870;50.944;6.932;2023-07-29T12:45:37;25.80;33.80
7341;DHT22;6870;50.944;6.932;2023-07-29T12:48:08;25.70;33.10
7341;DHT22;6870;50.944;6.932;2023-07-29T12:50:36;25.70;32.50
7341;DHT22;6870;50.944;6.932;2023-07-29T12:53:06;25.60;32.30
7341;DHT22;6870;50.944;6.932;2023-07-29T12:55:34;25.70;32.30
7341;DHT22;6870;50.944;6.932;2023-07-29T12:58:03;25.60;32.20
7341;DHT22;6870;50.944;6.932;2023-07-29T13:00:31;25.30;31.60
7341;DHT22;6870;50.944;6.932;2023-07-29T13:02:59;25.40;31.80
7341;DHT22;6870;50.944;6.932;2023-07-29T13:05:28;25.30;31.90
7341;DHT22;6870;50.944;6.932;2023-07-29T13:07:56;25.50;32.20
7341;DHT22;6870;50.944;6.932;2023-07-29T13:10:24;25.40;33.50
7341;DHT22;6870;50.944;6.932;2023-07-29T13:12:52;25.30;32.90
7341;DHT22;6870;50.944;6.932;2023-07-29T13:15:20;25.70;33.20
7341;DHT22;6870;50.944;6.932;2023-07-29T13:17:48;25.30;33.20
7341;DHT22;6870;50.944;6.932;2023-07-29T13:20:16;25.30;33.20
7341;DHT22;6870;50.944;6.932;2023-07-29T13:22:46;25.20;33.20
7341;DHT22;6870;50.944;6.932;2023-07-29T13:25:14;25.20;33.50
7341;DHT22;6870;50.944;6.932;2023-07-29T13:27:42;25.10;33.60
7341;DHT22;6870;50.944;6.932;2023-07-29T13:30:10;25.30;33.80
7341;DHT22;6870;50.944;6.932;2023-07-29T13:32:38;25.30;33.70
7341;DHT22;6870;50.944;6.932;2023-07-29T13:35:07;25.30;34.00
7341;DHT22;6870;50.944;6.932;2023-07-29T13:37:35;25.00;34.40
7341;DHT22;6870;50.944;6.932;2023-07-29T13:40:06;25.50;35.20
7341;DHT22;6870;50.944;6.932;2023-07-29T13:42:35;25.20;35.30
7341;DHT22;6870;50.944;6.932;2023-07-29T13:45:03;25.40;36.00
7341;DHT22;6870;50.944;6.932;2023-07-29T13:47:32;25.30;36.70
7341;DHT22;6870;50.944;6.932;2023-07-29T13:50:00;25.20;36.80
7341;DHT22;6870;50.944;6.932;2023-07-29T13:52:28;25.40;37.40
7341;DHT22;6870;50.944;6.932;2023-07-29T13:54:56;25.30;36.80
7341;DHT22;6870;50.944;6.932;2023-07-29T13:57:26;25.40;37.00
7341;DHT22;6870;50.944;6.932;2023-07-29T13:59:54;25.30;37.20
7341;DHT22;6870;50.944;6.932;2023-07-29T14:02:22;25.60;38.20
7341;DHT22;6870;50.944;6.932;2023-07-29T14:04:50;25.40;38.70
7341;DHT22;6870;50.944;6.932;2023-07-29T14:07:18;25.40;38.80
7341;DHT22;6870;50.944;6.932;2023-07-29T14:09:46;25.40;39.50
7341;DHT22;6870;50.944;6.932;2023-07-29T14:12:14;25.20;39.60
7341;DHT22;6870;50.944;6.932;2023-07-29T14:14:44;25.30;40.10
7341;DHT22;6870;50.944;6.932;2023-07-29T14:17:12;25.60;41.30
7341;DHT22;6870;50.944;6.932;2023-07-29T14:19:40;25.40;41.20
7341;DHT22;6870;50.944;6.932;2023-07-29T14:22:08;25.40;41.80
7341;DHT22;6870;50.944;6.932;2023-07-29T14:24:36;25.40;42.00
7341;DHT22;6870;50.944;6.932;2023-07-29T14:27:04;25.30;42.70
7341;DHT22;6870;50.944;6.932;2023-07-29T14:29:33;25.60;43.20
7341;DHT22;6870;50.944;6.932;2023-07-29T14:32:02;25.50;43.80
7341;DHT22;6870;50.944;6.932;2023-07-29T14:34:31;25.70;44.60
7341;DHT22;6870;50.944;6.932;2023-07-29T14:36:59;25.40;44.40
7341;DHT22;6870;50.944;6.932;2023-07-29T14:39:27;25.30;44.00
7341;DHT22;6870;50.944;6.932;2023-07-29T14:41:55;25.10;43.00
7341;DHT22;6870;50.944;6.932;2023-07-29T14:44:23;25.30;43.30
7341;DHT22;6870;50.944;6.932;2023-07-29T14:46:51;25.60;44.30
7341;DHT22;6870;50.944;6.932;2023-07-29T14:49:21;25.40;44.30
7341;DHT22;6870;50.944;6.932;2023-07-29T14:51:49;25.50;44.60
7341;DHT22;6870;50.944;6.932;2023-07-29T14:54:17;25.40;45.30
7341;DHT22;6870;50.944;6.932;2023-07-29T14:56:45;25.30;44.20
7341;DHT22;6870;50.944;6.932;2023-07-29T14:59:13;25.40;44.20
7341;DHT22;6870;50.944;6.932;2023-07-29T15:01:41;25.30;43.70
7341;DHT22;6870;50.944;6.932;2023-07-29T15:04:09;25.70;44.60
7341;DHT22;6870;50.944;6.932;2023-07-29T15:06:39;25.40;44.40
7341;DHT22;6870;50.944;6.932;2023-07-29T15:09:07;25.40;43.90
7341;DHT22;6870;50.944;6.932;2023-07-29T15:11:35;25.60;43.80
7341;DHT22;6870;50.944;6.932;2023-07-29T15:14:03;25.60;43.70
7341;DHT22;6870;50.944;6.932;2023-07-29T15:16:31;25.50;43.60
7341;DHT22;6870;50.944;6.932;2023-07-29T15:19:02;25.80;43.00
7341;DHT22;6870;50.944;6.932;2023-07-29T15:21:30;25.30;42.70
7341;DHT22;6870;50.944;6.932;2023-07-29T15:24:01;25.60;42.10
7341;DHT22;6870;50.944;6.932;2023-07-29T15:26:29;25.80;42.10
7341;DHT22;6870;50.944;6.932;2023-07-29T15:28:58;25.70;41.90
7341;DHT22;6870;50.944;6.932;2023-07-29T15:31:27;25.70;42.60
7341;DHT22;6870;50.944;6.932;2023-07-29T15:33:56;25.70;41.40
7341;DHT22;6870;50.944;6.932;2023-07-29T15:36:24;25.60;41.00
7341;DHT22;6870;50.944;6.932;2023-07-29T15:38:52;25.50;41.20
7341;DHT22;6870;50.944;6.932;2023-07-29T15:41:21;25.70;41.20
7341;DHT22;6870;50.944;6.932;2023-07-29T15:43:49;25.60;41.00
7341;DHT22;6870;50.944;6.932;2023-07-29T15:46:17;25.20;41.20
7341;DHT22;6870;50.944;6.932;2023-07-29T15:48:45;25.80;41.20
7341;DHT22;6870;50.944;6.932;2023-07-29T15:51:13;25.60;40.80
7341;DHT22;6870;50.944;6.932;2023-07-29T15:53:41;25.70;41.20
7341;DHT22;6870;50.944;6.932;2023-07-29T15:56:09;25.30;40.60
7341;DHT22;6870;50.944;6.932;2023-07-29T15:58:39;25.40;40.60
7341;DHT22;6870;50.944;6.932;2023-07-29T16:01:07;25.50;41.00
7341;DHT22;6870;50.944;6.932;2023-07-29T16:03:35;25.40;41.20
7341;DHT22;6870;50.944;6.932;2023-07-29T16:06:03;25.60;41.30
7341;DHT22;6870;50.944;6.932;2023-07-29T16:08:31;25.40;41.00
7341;DHT22;6870;50.944;6.932;2023-07-29T16:10:59;25.40;40.90
7341;DHT22;6870;50.944;6.932;2023-07-29T16:13:27;25.70;41.10
7341;DHT22;6870;50.944;6.932;2023-07-29T16:15:56;25.20;41.20